Waco, TX (76701)

2:15 AM CDT on April 26, 2017 (GMT -0500)
Downtown Waco | | Change Station

Elev 433 ft 31.56 °N, 97.13 °W | Updated 6 seconds ago

Overcast
Overcast
76.8 °F
Feels Like 78 °F
N
7.4
Wind Variable Wind from East
Gusts 9.8 mph

Today
High -- | Low -- °F
--% Chance of Precip.
Yesterday
High -- | Low -- °F
Precip. -- in
Pressure 29.44 in
Visibility 10.0 miles
Clouds Overcast 1500 ft
Heat Index 78 °F
Dew Point 71 °F
Humidity 83%
Rainfall 0.00 in
Snow Depth Not available.
6:47 AM 8:05 PM
Waning Crescent, 0% visible
METAR KACT 260651Z AUTO 17018KT 10SM OVC015 24/21 A2945 RMK AO2 PK WND 17026/0623 SLP967 T02390211
Pressure 29.44 in
Visibility 10.0 miles
Clouds Overcast 1500 ft
Heat Index 78 °F
Dew Point 71 °F
Humidity 83%
Rainfall 0.00 in
Snow Depth Not available.
6:47 AM 8:05 PM
Waning Crescent, 0% visible
METAR KACT 260651Z AUTO 17018KT 10SM OVC015 24/21 A2945 RMK AO2 PK WND 17026/0623 SLP967 T02390211

Get Severe Weather Alerts

Thanks for signing up!

Be on the lookout for a verification email in your inbox.

You'll start receiving the daily forecast at 8 AM.

×

10-Day Weather Forecast

Almanac

Astronomy

Apr. 26, 2017 Rise Set
Actual Time
Civil Twilight
Nautical Twilight
Astronomical Twilight
Moon
Length of Visible Light
Length of Day
Tomorrow will be .
, % of the Moon is Illuminated

Today's Extremes

State Highs State Lows

Community

WunderPhotos

WunderBlog® & News

Nearby

Air Quality

  Air Quality AQ Index Pollutant
Not available.

Snow Depth

Station Depth Elevation

Earthquake Activity

City Distance Mag. Time & Date
Minimum magnitude displayed is 2.5.

Coastal Water Temperatures

Place Temperature

Stations

Nearby Weather Stations

Station Location Temp. Windchill Dew Point Humidity Wind Precip. Elev Updated Type
                   

Watches & Warnings

There are currently no watches in effect.